Airfield :
LOGIN :

Register | Disclaimer

   EN    FR    IT 

 










Legend :    VFR   Marginal VFR   IFR   Intensive IFR   Very Intensive IFR
Visi :
Ceiling :
>= 8 km
>= 3000ft
5 to 8 km
1000 to 3000 ft
1500m to 5 km
500 to 1000 ft
800 to 1500m
200 to 500 ft
< 800m
< 200 ft
Symbols :   Thunderstorms  Fog  Heavy snow  Heavy precipitations  Wind > 20 kt
SIGMETs :     Misc.  Thunderstorms  Icing  Turbulence  Mountain Waves  Volcanic Ashes







- Airport Elevation : 2425 ft


ETHA - Altenstadt Army

CURRENT METAR :
  • 211920Z 22003KT 4000 -FZDZ BR BKN001 OVC006 M02/M02 Q1015 RED

EXPIRED METARs :
  • 211900Z 22003KT 3000 -FZDZ BR BKN001 OVC005 M02/M02 Q1015 RED
  • 211842Z 25003KT 2000 -SG VCFG OVC002 M02/M02 Q1015 AMB
  • 211820Z 24003KT 1000 -SG VCFG OVC001 M02/M02 Q1015 RED FCST CANCEL
  • 211720Z 01001KT 0200 FZFG VV000 M02/M02 Q1015 RED RED

TAF AMD TAF ETHA
Valid from the 21 at 15:00 until the 22 at 00:00 UTC


211720Z 2115/2124 VRB03KT 0100 FZFG VV000 CANCEL 1820
No reported NOTAMs for that airfield.
2 SIGMETs reported for the München FIR (EDMM) :
 
Severe icing
EDMM SIGMET 2 VALID 211844/212000 EDZM
EDMM MUNCHEN FIR SEV ICE FCST WI N5037 E01039 - N5024 E01230 - N5002 E01219 - N5006 E01030 - N5014 E01017 - N5037 E01039 1500FT/4500FT STNR NC=
Severe icing
EDMM SIGMET 1 VALID 211820/212000 EDZM
EDMM MUNCHEN FIR SEV ICE FCST WI N4842 E01100 - N4744 E01100 - N4745 E00914 - N4842 E00940 - N4842 E01100 SFC/4500FT STNR NC=



MET'MAP, your aeronautical weather chart ! - Copyright ORBIFLY December 2007 - Disclaimer

ORBIFLY MET'MAP TEAM :

Programming & Development : Alexandra Zaïnal
Concept & Development : Baudouin d'Aumeries
Co-Development & Prog : Marc-Olivier Méhu
Technical & hardware support : Manuel Goepfert

Contact : metmap@orbifly.com




SOURCES & CREDITS :

   NOAA